Time;durP1;ratioP1;P1;durP2;ratioP2;P2;SDS_P1;SDS_P2;PMS_P1;PMS_P2;Temp;Humidity;BMP_temperature;BMP_pressure;BME280_temperature;BME280_humidity;BME280_pressure;Samples;Min_cycle;Max_cycle;Signal;HPM_P1;HPM_P2
2022/10/12 00:01:40;;;;;;;20.40;14.40;;;;;;;4.11;78.19;99821.35;85290;1311;22506;-77
2022/10/12 00:03:41;;;;;;;29.90;14.30;;;;;;;4.05;78.32;99824.35;85475;1295;27601;-77
2022/10/12 00:05:43;;;;;;;33.40;15.20;;;;;;;4.02;78.22;99824.72;85350;1301;99322;-76
2022/10/12 00:07:44;;;;;;;27.00;14.40;;;;;;;3.97;78.28;99827.54;85448;1295;22528;-77
2022/10/12 00:09:45;;;;;;;28.90;14.90;;;;;;;3.92;78.13;99824.80;85333;1302;22636;-76
2022/10/12 00:11:46;;;;;;;26.90;13.20;;;;;;;3.88;78.26;99824.48;85317;1302;98013;-77
2022/10/12 00:13:47;;;;;;;30.20;15.70;;;;;;;3.84;78.27;99824.52;85407;1302;22745;-78
2022/10/12 00:15:48;;;;;;;27.10;16.10;;;;;;;3.79;78.29;99827.66;85343;1304;25641;-77
2022/10/12 00:17:50;;;;;;;24.60;14.60;;;;;;;3.76;78.23;99828.04;85317;1295;99294;-76
2022/10/12 00:19:51;;;;;;;29.70;14.90;;;;;;;3.72;78.27;99825.80;85204;1302;25393;-77
2022/10/12 00:21:52;;;;;;;24.10;15.60;;;;;;;3.68;78.24;99829.13;85238;1295;22507;-75
2022/10/12 00:23:59;;;;;;;28.90;15.00;;;;;;;3.66;78.15;99828.98;85230;1295;98730;-76
2022/10/12 00:26:02;;;;;;;27.00;15.80;;;;;;;3.63;78.44;99831.94;85254;1298;23838;-76
2022/10/12 00:28:04;;;;;;;27.20;15.20;;;;;;;3.61;78.31;99833.34;85238;1305;22441;-76
2022/10/12 00:30:05;;;;;;;26.40;15.40;;;;;;;3.59;78.41;99832.32;85305;1298;100266;-76
2022/10/12 00:32:06;;;;;;;36.10;15.60;;;;;;;3.59;78.29;99830.40;85444;1301;22528;-77
2022/10/12 00:34:08;;;;;;;26.60;15.50;;;;;;;3.60;78.29;99829.53;85358;1298;22462;-77
2022/10/12 00:36:24;;;;;;;24.80;16.50;;;;;;;3.61;78.35;99829.88;85449;1298;99587;-80
2022/10/12 00:38:25;;;;;;;24.20;15.40;;;;;;;3.62;78.47;99828.13;85483;1311;22499;-78
2022/10/12 00:40:26;;;;;;;28.40;16.10;;;;;;;3.62;78.51;99828.30;85413;1312;22563;-76
2022/10/12 00:42:27;;;;;;;28.30;16.80;;;;;;;3.63;78.66;99826.38;85317;1325;98359;-77
2022/10/12 00:44:39;;;;;;;34.10;16.60;;;;;;;3.63;78.58;99830.20;85546;1302;22445;-77
2022/10/12 00:46:45;;;;;;;23.20;15.50;;;;;;;3.62;78.41;99829.88;85601;1326;22555;-77
2022/10/12 00:48:53;;;;;;;25.50;16.10;;;;;;;3.62;78.70;99832.99;85491;1303;22550;-78
2022/10/12 00:50:56;;;;;;;26.90;16.30;;;;;;;3.63;78.41;99831.08;85402;1294;22558;-78
2022/10/12 00:53:01;;;;;;;28.90;16.00;;;;;;;3.64;78.88;99830.20;85279;1302;98505;-77
2022/10/12 00:55:04;;;;;;;33.30;16.40;;;;;;;3.65;78.96;99829.50;85488;1303;193214;-77
2022/10/12 00:57:09;;;;;;;23.00;14.70;;;;;;;3.65;78.67;99826.55;85474;1305;22553;-76
2022/10/12 00:59:18;;;;;;;27.20;15.20;;;;;;;3.67;78.88;99824.96;85369;1295;99970;-76
2022/10/12 01:01:19;;;;;;;22.50;14.30;;;;;;;3.68;79.05;99821.84;85466;1297;25603;-76
2022/10/12 01:03:22;;;;;;;29.20;15.20;;;;;;;3.70;78.98;99823.39;85298;1304;25409;-77
2022/10/12 01:05:24;;;;;;;29.70;14.50;;;;;;;3.71;79.10;99822.50;85563;1301;99086;-77
2022/10/12 01:07:25;;;;;;;23.90;13.10;;;;;;;3.72;78.85;99823.02;85656;1325;22535;-79
2022/10/12 01:09:27;;;;;;;;;;;;;;;3.73;79.31;99822.51;85652;1305;22513;-77
2022/10/12 01:11:30;;;;;;;17.00;12.30;;;;;;;3.73;79.01;99821.80;85398;1303;84898;-78
2022/10/12 01:13:31;;;;;;;22.20;12.70;;;;;;;3.72;79.05;99820.77;85561;1295;23993;-78
2022/10/12 01:15:38;;;;;;;25.60;13.80;;;;;;;3.71;79.09;99820.59;85636;1301;24369;-77
2022/10/12 01:18:12;;;;;;;29.80;13.50;;;;;;;3.70;78.92;99817.98;85452;1298;99240;-77
2022/10/12 01:20:27;;;;;;;30.70;13.80;;;;;;;3.67;78.81;99819.40;85523;1312;22528;-77
2022/10/12 01:22:32;;;;;;;21.10;12.90;;;;;;;3.64;78.74;99820.81;85491;1302;23070;-77
2022/10/12 01:25:06;;;;;;;21.70;13.20;;;;;;;3.60;78.91;99820.84;85883;1300;99101;-78
2022/10/12 01:27:54;;;;;;;21.70;12.30;;;;;;;3.55;78.74;99822.95;85780;1295;23726;-77
2022/10/12 01:30:35;;;;;;;22.60;13.90;;;;;;;3.47;78.90;99814.31;86285;1296;99463;-77
2022/10/12 01:33:01;;;;;;;25.90;14.00;;;;;;;3.48;79.16;99818.65;85998;1324;22458;-76
2022/10/12 01:35:28;;;;;;;21.20;13.10;;;;;;;3.46;78.97;99823.19;86114;1301;99590;-77
2022/10/12 01:37:52;;;;;;;20.20;13.70;;;;;;;3.45;78.93;99824.06;85674;1323;22523;-76
2022/10/12 01:39:58;;;;;;;22.20;13.30;;;;;;;3.41;79.01;99820.44;85527;1341;22583;-76
2022/10/12 01:42:08;;;;;;;20.90;11.00;;;;;;;3.40;79.02;99821.83;85358;1341;99440;-77
2022/10/12 01:44:09;;;;;;;26.90;12.70;;;;;;;3.40;78.76;99824.09;85558;1318;22629;-77
2022/10/12 01:46:15;;;;;;;24.30;13.60;;;;;;;3.40;79.07;99821.11;85397;1326;23045;-78
2022/10/12 01:48:17;;;;;;;21.80;13.70;;;;;;;3.40;79.16;99819.73;85631;1314;98339;-77
2022/10/12 01:50:24;;;;;;;16.00;10.30;;;;;;;3.40;78.95;99822.16;85590;1323;22628;-76
2022/10/12 01:53:11;;;;;;;23.70;13.30;;;;;;;3.40;78.98;99824.27;85672;1316;22599;-78
2022/10/12 01:55:30;;;;;;;27.00;13.90;;;;;;;3.40;78.97;99823.05;85521;1317;22525;-77
2022/10/12 01:57:57;;;;;;;21.70;13.10;;;;;;;3.40;78.81;99819.92;85693;1314;22579;-77
2022/10/12 02:00:09;;;;;;;25.10;13.40;;;;;;;3.40;79.06;99820.26;85305;1317;98470;-77
2022/10/12 02:02:29;;;;;;;;;;;;;;;3.38;79.15;99818.37;85295;1317;23199;-77
2022/10/12 02:04:36;;;;;;;26.80;12.00;;;;;;;3.35;78.90;99824.11;85194;1314;22556;-77
2022/10/12 02:06:46;;;;;;;26.70;13.60;;;;;;;3.29;79.04;99824.66;85125;1319;98612;-78
2022/10/12 02:08:59;;;;;;;20.40;12.40;;;;;;;3.28;79.08;99821.71;85354;1307;24554;-78
2022/10/12 02:11:09;;;;;;;36.60;13.70;;;;;;;3.26;79.02;99822.25;85362;1309;98326;-78
2022/10/12 02:13:15;;;;;;;26.10;12.80;;;;;;;3.25;79.01;99826.94;85404;1307;22518;-79
2022/10/12 02:15:17;;;;;;;28.60;13.80;;;;;;;3.21;79.02;99827.13;85548;1295;22594;-77
2022/10/12 02:17:22;;;;;;;19.90;13.40;;;;;;;3.20;78.90;99829.91;85609;1302;98148;-78
2022/10/12 02:19:27;;;;;;;23.50;12.90;;;;;;;3.20;79.06;99828.52;85531;1298;25483;-79
2022/10/12 02:21:31;;;;;;;19.70;12.70;;;;;;;3.20;79.08;99827.13;85608;1312;25412;-77
2022/10/12 02:23:34;;;;;;;23.30;14.60;;;;;;;3.16;79.08;99821.60;85536;1312;97956;-78
2022/10/12 02:25:40;;;;;;;27.40;12.30;;;;;;;3.17;79.04;99831.30;85575;1298;25536;-79
2022/10/12 02:27:47;;;;;;;21.00;12.80;;;;;;;3.15;78.75;99827.50;85643;1298;22990;-78
2022/10/12 02:29:48;;;;;;;22.50;12.70;;;;;;;3.13;79.01;99829.41;85426;1298;98456;-79
2022/10/12 02:31:55;;;;;;;29.30;12.20;;;;;;;3.11;79.09;99830.12;85541;1298;22513;-77
2022/10/12 02:34:04;;;;;;;17.80;11.40;;;;;;;3.07;79.11;99827.20;85742;1303;22587;-78
2022/10/12 02:36:10;;;;;;;21.10;11.60;;;;;;;3.06;79.15;99824.59;85771;1294;98118;-77
2022/10/12 02:38:24;;;;;;;20.70;13.00;;;;;;;3.08;79.01;99824.06;85782;1302;22497;-78
2022/10/12 02:40:36;;;;;;;24.80;12.30;;;;;;;3.06;79.25;99822.16;85851;1296;23723;-78
2022/10/12 02:42:43;;;;;;;24.10;13.00;;;;;;;3.07;79.02;99824.58;85617;1298;98679;-78
2022/10/12 02:44:45;;;;;;;21.80;12.10;;;;;;;3.09;79.39;99824.23;85575;1298;22528;-78
2022/10/12 02:46:48;;;;;;;20.90;12.40;;;;;;;3.09;79.19;99823.02;85590;1306;22496;-78
2022/10/12 02:48:52;;;;;;;31.30;13.20;;;;;;;3.10;79.28;99821.09;85650;1302;98958;-78
2022/10/12 02:50:56;;;;;;;33.00;13.70;;;;;;;3.11;79.24;99826.30;85756;1321;25414;-77
2022/10/12 02:52:58;;;;;;;43.80;14.60;;;;;;;3.12;79.14;99826.47;85732;1304;99114;-78
2022/10/12 02:54:59;;;;;;;25.70;13.80;;;;;;;3.15;79.55;99828.73;85645;1322;22656;-78
2022/10/12 02:57:01;;;;;;;27.70;13.10;;;;;;;3.15;79.31;99825.41;85686;1297;23000;-78
2022/10/12 02:59:03;;;;;;;24.00;13.30;;;;;;;3.13;79.33;99826.98;85556;1302;99512;-77
2022/10/12 03:01:04;;;;;;;22.90;12.00;;;;;;;3.10;79.11;99826.48;85504;1305;25306;-79
2022/10/12 03:03:05;;;;;;;26.50;12.00;;;;;;;3.06;79.32;99829.29;85759;1309;25100;-79
2022/10/12 03:05:08;;;;;;;20.10;11.20;;;;;;;3.02;79.18;99831.73;85712;1326;98379;-78
2022/10/12 03:07:10;;;;;;;23.30;12.70;;;;;;;2.99;79.19;99831.38;85641;1311;22553;-78
2022/10/12 03:09:13;;;;;;;34.00;12.00;;;;;;;2.95;79.22;99832.45;85816;1303;22819;-79
2022/10/12 03:11:15;;;;;;;23.30;11.90;;;;;;;2.93;79.14;99831.59;85693;1318;98889;-79
2022/10/12 03:13:16;;;;;;;26.10;13.10;;;;;;;2.88;79.26;99827.25;85746;1327;22461;-79
2022/10/12 03:15:17;;;;;;;24.50;10.70;;;;;;;2.86;79.23;99826.04;85690;1302;22538;-79
2022/10/12 03:17:19;;;;;;;20.40;11.00;;;;;;;2.83;79.12;99827.79;85639;1325;97911;-79
2022/10/12 03:19:20;;;;;;;24.60;11.50;;;;;;;2.80;79.04;99828.14;85667;1327;25363;-77
2022/10/12 03:21:23;;;;;;;;;;;;;;;2.76;79.06;99832.48;85657;1302;25217;-76
2022/10/12 03:23:25;;;;;;;21.00;10.90;;;;;;;2.72;79.14;99831.30;85646;1321;84099;-78
2022/10/12 03:25:26;;;;;;;13.00;10.50;;;;;;;2.71;78.95;99829.21;85486;1326;22474;-79
2022/10/12 03:27:27;;;;;;;21.50;11.40;;;;;;;2.69;79.24;99833.20;85619;1302;22535;-78
2022/10/12 03:29:28;;;;;;;19.10;10.60;;;;;;;2.69;79.29;99829.73;85558;1303;98292;-78
2022/10/12 03:31:29;;;;;;;28.00;11.00;;;;;;;2.70;79.37;99828.86;85551;1321;22735;-78
2022/10/12 03:33:31;;;;;;;19.10;11.50;;;;;;;2.70;79.31;99829.21;85774;1312;22534;-80
2022/10/12 03:35:33;;;;;;;15.80;10.60;;;;;;;2.70;79.44;99837.38;85496;1327;98736;-79
2022/10/12 03:37:34;;;;;;;21.80;11.20;;;;;;;2.65;79.40;99827.14;85818;1324;22496;-78
2022/10/12 03:39:35;;;;;;;;;;;;;;;2.69;79.19;99832.34;85735;1324;22496;-78
2022/10/12 03:41:36;;;;;;;22.70;10.30;;;;;;;2.69;79.55;99829.91;85633;1309;84887;-78
2022/10/12 03:43:37;;;;;;;21.40;11.50;;;;;;;2.70;79.46;99829.55;85749;1322;22625;-79
2022/10/12 03:45:38;;;;;;;17.10;10.40;;;;;;;2.67;79.33;99833.91;85704;1299;24264;-80
2022/10/12 03:47:39;;;;;;;15.00;10.80;;;;;;;2.67;79.31;99834.60;85684;1295;97903;-78
2022/10/12 03:49:40;;;;;;;17.30;10.20;;;;;;;2.68;79.63;99833.91;85605;1302;22497;-79
2022/10/12 03:51:47;;;;;;;15.80;9.70;;;;;;;2.70;79.60;99833.38;85554;1305;22302;-80
2022/10/12 03:53:48;;;;;;;23.60;11.90;;;;;;;2.69;79.44;99829.73;85525;1312;99113;-80
2022/10/12 03:55:49;;;;;;;24.10;10.80;;;;;;;2.68;79.42;99832.86;85671;1308;25588;-80
2022/10/12 03:57:50;;;;;;;23.20;11.10;;;;;;;2.69;79.59;99836.69;85606;1311;22503;-80
2022/10/12 03:59:51;;;;;;;32.80;12.40;;;;;;;2.67;79.51;99839.11;85665;1304;98622;-81
2022/10/12 04:01:52;;;;;;;29.70;11.80;;;;;;;2.65;79.57;99841.36;85646;1319;24218;-80
2022/10/12 04:03:54;;;;;;;26.40;11.00;;;;;;;2.65;79.37;99841.72;85488;1319;22610;-80
2022/10/12 04:05:59;;;;;;;32.00;10.80;;;;;;;2.64;79.47;99838.59;85261;1304;98635;-79
2022/10/12 04:08:02;;;;;;;28.70;11.50;;;;;;;2.61;79.67;99836.52;85427;1313;22509;-80
2022/10/12 04:10:06;;;;;;;24.50;12.50;;;;;;;2.57;79.40;99833.06;85132;1298;22532;-80
2022/10/12 04:12:07;;;;;;;32.30;12.70;;;;;;;2.53;79.29;99837.58;85232;1304;98202;-79
2022/10/12 04:14:09;;;;;;;24.80;12.90;;;;;;;2.49;79.32;99836.71;85091;1305;22603;-79
2022/10/12 04:16:09;;;;;;;;;;;;;;;2.46;79.22;99835.33;84896;1298;26013;-79
2022/10/12 04:18:10;;;;;;;41.60;11.50;;;;;;;2.41;79.12;99841.23;85390;1303;84107;-81
2022/10/12 04:20:12;;;;;;;19.80;11.40;;;;;;;2.36;79.34;99837.77;85746;1308;22544;-80
2022/10/12 04:22:13;;;;;;;34.70;12.50;;;;;;;2.35;79.21;99843.15;85504;1303;22656;-81
2022/10/12 04:24:14;;;;;;;24.70;11.40;;;;;;;2.35;79.49;99844.37;84974;1307;98425;-81
2022/10/12 04:26:16;;;;;;;26.10;12.60;;;;;;;2.32;79.40;99841.58;85186;1312;24197;-80
2022/10/12 04:28:17;;;;;;;;;;;;;;;2.30;79.27;99850.09;85127;1315;22591;-81
2022/10/12 04:30:18;;;;;;;26.50;14.60;;;;;;;2.26;79.63;99848.70;85586;1300;84309;-80
2022/10/12 04:32:19;;;;;;;22.50;14.00;;;;;;;2.26;79.33;99850.42;85153;1312;25406;-81
2022/10/12 04:34:20;;;;;;;25.20;13.30;;;;;;;2.26;79.47;99851.82;85281;1321;24341;-81
2022/10/12 04:36:25;;;;;;;26.40;14.90;;;;;;;2.24;79.58;99855.65;85369;1324;97943;-81
2022/10/12 04:38:26;;;;;;;32.30;14.60;;;;;;;2.21;79.15;99858.93;85397;1298;22536;-79
2022/10/12 04:40:28;;;;;;;31.90;13.70;;;;;;;2.18;79.29;99856.67;85654;1301;22750;-80
2022/10/12 04:42:29;;;;;;;;;;;;;;;2.17;79.43;99861.88;85708;1302;99673;-80
2022/10/12 04:44:30;;;;;;;27.30;12.90;;;;;;;2.14;79.26;99864.14;85884;1295;22494;-80
2022/10/12 04:46:31;;;;;;;;;;;;;;;2.13;79.52;99863.97;85943;1302;22472;-81
2022/10/12 04:48:32;;;;;;;26.60;13.00;;;;;;;2.12;79.42;99861.87;85772;1295;84700;-78
2022/10/12 04:50:33;;;;;;;;;;;;;;;2.12;79.33;99859.10;85845;1302;23199;-80
2022/10/12 04:52:35;;;;;;;29.50;11.80;;;;;;;2.09;79.63;99856.52;85771;1295;23801;-79
2022/10/12 04:54:36;;;;;;;24.60;12.90;;;;;;;2.10;79.61;99857.88;85383;1302;98140;-81
2022/10/12 04:56:39;;;;;;;25.70;13.40;;;;;;;2.12;79.42;99858.77;85525;1302;22668;-81
2022/10/12 04:58:42;;;;;;;29.10;13.70;;;;;;;2.14;79.64;99857.90;85534;1302;25251;-80
2022/10/12 05:00:43;;;;;;;30.80;13.50;;;;;;;2.15;79.74;99857.02;85036;1302;99298;-78
2022/10/12 05:02:44;;;;;;;23.30;13.50;;;;;;;2.15;79.64;99856.67;85137;1302;25402;-79
2022/10/12 05:04:45;;;;;;;28.40;15.20;;;;;;;2.15;79.62;99856.86;85108;1295;23327;-79
2022/10/12 05:06:45;;;;;;;25.80;13.70;;;;;;;2.14;79.61;99858.92;85102;1295;99093;-79
2022/10/12 05:08:46;;;;;;;30.30;13.00;;;;;;;2.11;79.71;99861.88;84793;1304;22496;-79
2022/10/12 05:10:47;;;;;;;26.40;12.20;;;;;;;2.10;79.54;99861.35;85184;1298;22506;-79
2022/10/12 05:12:49;;;;;;;22.20;11.50;;;;;;;2.09;79.78;99864.83;84894;1305;99718;-80
2022/10/12 05:14:50;;;;;;;19.50;12.70;;;;;;;2.08;79.68;99867.42;85050;1301;26556;-80
2022/10/12 05:16:51;;;;;;;26.90;13.60;;;;;;;2.10;79.65;99864.64;85010;1298;22548;-79
2022/10/12 05:18:52;;;;;;;45.30;15.00;;;;;;;2.14;79.78;99867.78;84989;1294;98258;-79
2022/10/12 05:20:54;;;;;;;44.40;15.20;;;;;;;2.18;79.67;99868.46;85120;1295;26585;-80
2022/10/12 05:22:57;;;;;;;41.30;14.80;;;;;;;2.21;79.84;99872.11;85015;1312;98183;-80
2022/10/12 05:24:58;;;;;;;39.70;13.80;;;;;;;2.23;79.89;99874.54;85075;1296;25240;-79
2022/10/12 05:27:01;;;;;;;62.60;15.40;;;;;;;2.25;79.81;99879.73;85020;1295;22755;-80
2022/10/12 05:29:02;;;;;;;44.70;15.90;;;;;;;2.29;79.97;99876.95;84977;1295;98555;-79
2022/10/12 05:31:04;;;;;;;48.20;15.10;;;;;;;2.32;79.95;99879.58;85065;1301;22521;-79
2022/10/12 05:33:06;;;;;;;59.80;15.90;;;;;;;2.34;79.92;99879.21;85477;1298;23970;-80
2022/10/12 05:35:08;;;;;;;64.70;15.30;;;;;;;2.37;80.07;99875.41;85423;1305;99617;-79
2022/10/12 05:37:09;;;;;;;31.80;14.70;;;;;;;2.41;80.26;99873.32;85435;1301;24349;-79
2022/10/12 05:39:10;;;;;;;88.50;18.80;;;;;;;2.45;80.25;99872.61;85481;1305;22578;-79
2022/10/12 05:41:11;;;;;;;48.50;14.90;;;;;;;2.51;80.51;99872.27;85445;1295;99390;-80
2022/10/12 05:43:12;;;;;;;;;;;;;;;2.57;80.17;99873.14;85609;1301;24276;-79
2022/10/12 05:45:14;;;;;;;58.90;16.30;;;;;;;2.58;80.42;99869.65;85529;1312;22657;-77
2022/10/12 05:47:15;;;;;;;52.10;15.00;;;;;;;2.62;80.40;99869.66;85388;1301;98565;-80
2022/10/12 05:49:16;;;;;;;;;;;;;;;2.67;80.53;99870.17;85452;1303;23189;-79
2022/10/12 05:51:19;;;;;;;57.50;14.00;;;;;;;2.75;80.40;99872.23;85759;1296;25297;-80
2022/10/12 05:53:22;;;;;;;46.30;13.60;;;;;;;2.78;80.57;99869.63;85072;1307;99678;-79
2022/10/12 05:55:23;;;;;;;66.80;12.30;;;;;;;2.82;80.67;99869.63;85565;1297;22649;-79
2022/10/12 05:57:24;;;;;;;;;;;;;;;2.88;80.71;99873.77;85116;1295;22893;-80
2022/10/12 05:59:26;;;;;;;55.40;10.90;;;;;;;2.94;80.68;99867.16;85620;1302;84849;-80
2022/10/12 06:01:27;;;;;;;49.50;12.40;;;;;;;3.01;80.58;99867.67;85719;1301;23344;-79
2022/10/12 06:03:28;;;;;;;47.30;13.70;;;;;;;3.07;80.62;99872.51;85981;1295;22548;-79
2022/10/12 06:05:29;;;;;;;47.90;12.60;;;;;;;3.13;80.56;99877.86;85383;1304;100939;-78
2022/10/12 06:07:33;;;;;;;43.10;12.20;;;;;;;3.18;80.80;99880.27;85093;1305;22687;-77
2022/10/12 06:09:37;;;;;;;42.60;13.90;;;;;;;3.25;80.85;99880.77;85245;1298;24390;-79
2022/10/12 06:11:38;;;;;;;44.10;12.00;;;;;;;3.30;80.68;99878.33;85231;1303;98730;-78
2022/10/12 06:13:41;;;;;;;48.30;14.40;;;;;;;3.40;80.61;99880.02;85303;1295;22528;-78
2022/10/12 06:15:46;;;;;;;43.20;14.30;;;;;;;3.47;80.72;99879.30;85165;1295;24235;-79
2022/10/12 06:17:47;;;;;;;43.10;13.60;;;;;;;3.55;80.64;99880.64;85112;1303;98135;-76
2022/10/12 06:19:48;;;;;;;30.90;14.50;;;;;;;3.62;80.64;99875.39;85417;1298;24024;-77
2022/10/12 06:21:49;;;;;;;;;;;;;;;3.73;81.00;99880.38;85620;1305;22418;-76
2022/10/12 06:23:51;;;;;;;40.10;14.10;;;;;;;3.82;80.79;99878.59;85391;1309;85296;-76
2022/10/12 06:25:54;;;;;;;34.30;13.20;;;;;;;3.90;80.88;99881.32;85683;1303;23070;-76
2022/10/12 06:27:55;;;;;;;41.20;12.30;;;;;;;3.99;81.12;99882.66;85469;1304;22506;-77
2022/10/12 06:29:57;;;;;;;43.20;17.60;;;;;;;4.05;80.98;99883.30;85723;1311;98198;-75
2022/10/12 06:31:59;;;;;;;50.90;14.60;;;;;;;4.13;80.77;99887.43;85646;1301;22500;-76
2022/10/12 06:34:00;;;;;;;45.40;16.70;;;;;;;4.19;81.08;99883.36;85630;1300;25578;-76
2022/10/12 06:36:01;;;;;;;;;;;;;;;4.29;80.89;99883.99;85408;1302;99387;-76
2022/10/12 06:38:02;;;;;;;54.00;16.10;;;;;;;4.35;80.91;99886.92;85572;1298;23526;-76
2022/10/12 06:40:04;;;;;;;41.70;15.10;;;;;;;4.43;81.00;99884.58;85370;1303;22567;-75
2022/10/12 06:42:07;;;;;;;56.40;13.80;;;;;;;4.51;80.93;99888.17;85240;1301;99204;-75
2022/10/12 06:44:08;;;;;;;32.70;14.90;;;;;;;4.60;80.93;99888.09;85301;1302;24305;-75
2022/10/12 06:46:10;;;;;;;57.60;16.00;;;;;;;4.69;80.99;99894.44;85347;1295;22468;-75
2022/10/12 06:48:11;;;;;;;56.80;16.50;;;;;;;4.78;80.91;99890.35;85183;1301;99263;-76
2022/10/12 06:50:12;;;;;;;97.00;20.80;;;;;;;4.87;81.02;99891.30;85284;1301;24294;-76
2022/10/12 06:52:13;;;;;;;51.40;16.70;;;;;;;4.96;81.10;99892.61;85277;1299;24497;-76
2022/10/12 06:54:14;;;;;;;69.80;16.90;;;;;;;5.03;80.86;99887.48;85264;1302;99709;-76
2022/10/12 06:56:16;;;;;;;81.00;16.70;;;;;;;5.09;80.85;99888.28;85375;1302;22511;-74
2022/10/12 06:58:16;;;;;;;91.50;19.20;;;;;;;5.16;80.82;99888.21;85254;1302;25237;-74
2022/10/12 07:00:17;;;;;;;87.70;17.90;;;;;;;5.22;80.88;99889.53;85030;1297;98808;-75
2022/10/12 07:02:18;;;;;;;109.60;21.10;;;;;;;5.29;80.93;99887.53;85323;1298;26555;-75
2022/10/12 07:04:19;;;;;;;85.00;16.70;;;;;;;5.37;80.78;99889.36;85183;1305;22606;-75
2022/10/12 07:06:20;;;;;;;81.60;18.10;;;;;;;5.45;80.88;99894.50;85301;1302;99762;-75
2022/10/12 07:08:21;;;;;;;64.50;15.40;;;;;;;5.52;81.01;99890.22;85146;1305;22492;-74
2022/10/12 07:10:23;;;;;;;46.50;14.50;;;;;;;5.62;80.91;99887.30;85288;1302;22446;-75
2022/10/12 07:12:25;;;;;;;73.70;17.10;;;;;;;5.70;80.89;99892.77;85190;1303;97992;-75
2022/10/12 07:14:26;;;;;;;79.80;16.60;;;;;;;5.80;80.86;99892.29;85158;1301;22752;-75
2022/10/12 07:16:27;;;;;;;60.30;17.60;;;;;;;5.88;80.95;99891.83;85296;1295;22629;-75
2022/10/12 07:18:28;;;;;;;57.90;20.20;;;;;;;5.99;80.84;99893.80;85032;1305;98271;-75
2022/10/12 07:20:28;;;;;;;63.80;17.40;;;;;;;6.08;80.92;99896.47;85256;1295;22525;-75
2022/10/12 07:22:29;;;;;;;54.60;17.40;;;;;;;6.17;81.09;99894.75;85207;1297;22536;-75
2022/10/12 07:24:37;;;;;;;68.10;15.10;;;;;;;6.26;80.91;99893.23;85284;1301;98718;-75
2022/10/12 07:26:45;;;;;;;47.50;15.50;;;;;;;6.34;80.80;99892.23;85096;1305;22711;-75
2022/10/12 07:28:47;;;;;;;52.90;15.50;;;;;;;6.41;80.81;99890.20;85127;1304;22796;-74
2022/10/12 07:30:48;;;;;;;48.90;14.90;;;;;;;6.47;80.94;99889.03;85124;1301;99197;-75
2022/10/12 07:32:49;;;;;;;41.10;14.20;;;;;;;6.54;80.77;99889.27;85278;1291;22499;-74
2022/10/12 07:34:52;;;;;;;;;;;;;;;6.60;80.64;99886.02;85170;1306;24285;-75
2022/10/12 07:36:53;;;;;;;47.00;13.50;;;;;;;6.66;80.72;99884.52;85318;1298;85965;-76
2022/10/12 07:38:54;;;;;;;35.50;14.00;;;;;;;6.73;80.63;99883.00;85324;1301;22586;-74
2022/10/12 07:41:00;;;;;;;51.60;13.60;;;;;;;6.80;80.74;99880.09;85516;1292;24276;-75
2022/10/12 07:43:01;;;;;;;50.20;11.80;;;;;;;6.89;81.00;99879.40;85292;1304;22503;-75
2022/10/12 07:45:03;;;;;;;;;;;;;;;6.96;80.71;99876.29;85252;1295;22479;-75
2022/10/12 07:47:04;;;;;;;38.10;13.10;;;;;;;7.04;80.63;99875.63;85282;1302;85951;-75
2022/10/12 07:49:05;;;;;;;28.20;12.20;;;;;;;7.11;80.61;99872.67;85196;1301;25587;-75
2022/10/12 07:51:09;;;;;;;40.30;12.80;;;;;;;7.20;80.63;99874.27;85654;1302;22608;-75
2022/10/12 07:53:10;;;;;;;40.70;13.80;;;;;;;7.27;80.56;99872.73;85721;1301;99716;-74
2022/10/12 07:55:11;;;;;;;45.80;13.00;;;;;;;7.34;80.58;99878.70;85916;1302;26191;-74
2022/10/12 07:57:12;;;;;;;28.20;13.30;;;;;;;7.42;80.16;99874.88;85886;1294;22681;-75
2022/10/12 07:59:14;;;;;;;30.80;13.10;;;;;;;7.48;80.66;99874.73;85627;1304;98877;-75
2022/10/12 08:01:17;;;;;;;43.90;13.50;;;;;;;7.57;80.59;99874.02;85855;1298;24351;-75
2022/10/12 08:03:19;;;;;;;53.90;13.50;;;;;;;7.64;80.55;99874.73;85915;1302;24259;-75
2022/10/12 08:05:21;;;;;;;44.90;13.20;;;;;;;7.72;80.46;99871.07;86009;1299;98247;-74
2022/10/12 08:07:21;;;;;;;46.70;12.60;;;;;;;7.78;80.55;99873.23;85850;1302;22513;-74
2022/10/12 08:09:22;;;;;;;71.10;15.60;;;;;;;7.87;80.37;99874.25;86007;1303;21969;-75
2022/10/12 08:11:24;;;;;;;;;;;;;;;8.01;80.62;99874.45;85839;1303;99236;-75
2022/10/12 08:13:26;;;;;;;46.40;13.70;;;;;;;8.14;80.33;99870.83;85937;1302;25342;-73
2022/10/12 08:15:28;;;;;;;46.00;12.30;;;;;;;8.27;80.52;99870.68;85929;1309;22514;-74
2022/10/12 08:17:30;;;;;;;38.50;12.90;;;;;;;8.41;80.08;99871.58;85883;1308;101000;-74
2022/10/12 08:19:31;;;;;;;57.50;11.10;;;;;;;8.58;80.52;99872.39;85903;1303;27675;-74
2022/10/12 08:21:33;;;;;;;;;;;;;;;8.80;80.51;99871.13;85775;1298;22651;-74
2022/10/12 08:23:35;;;;;;;27.80;11.10;;;;;;;9.02;80.47;99865.98;85912;1303;86499;-75
2022/10/12 08:25:37;;;;;;;24.70;10.70;;;;;;;9.21;80.12;99868.96;85963;1299;22547;-74
2022/10/12 08:27:37;;;;;;;;;;;;;;;9.32;79.84;99867.23;85760;1304;22518;-75
2022/10/12 08:29:38;;;;;;;28.20;10.90;;;;;;;9.43;79.63;99862.20;85801;1299;84042;-75
2022/10/12 08:31:42;;;;;;;24.80;9.70;;;;;;;9.62;79.65;99864.11;86137;1296;22608;-74
2022/10/12 08:33:43;;;;;;;18.80;8.20;;;;;;;9.76;79.62;99863.34;85836;1303;22506;-75
2022/10/12 08:35:49;;;;;;;31.90;11.10;;;;;;;9.85;79.54;99859.02;85714;1303;97770;-75
2022/10/12 08:37:50;;;;;;;25.00;9.50;;;;;;;9.98;79.45;99860.02;85900;1302;25434;-75
2022/10/12 08:39:51;;;;;;;;;;;;;;;10.04;79.22;99863.67;85964;1309;22595;-75
2022/10/12 08:42:35;;;;;;;23.00;10.10;;;;;;;10.16;79.40;99862.79;85954;1303;84122;-75
2022/10/12 08:44:39;;;;;;;32.70;10.90;;;;;;;10.29;79.19;99861.15;86066;1301;25400;-76
2022/10/12 08:46:41;;;;;;;26.00;10.20;;;;;;;10.42;79.05;99856.86;86111;1306;25430;-76
2022/10/12 08:48:44;;;;;;;24.30;9.70;;;;;;;10.52;79.03;99860.06;85655;1295;99580;-73
2022/10/12 08:50:54;;;;;;;28.60;10.20;;;;;;;10.58;78.82;99858.96;86080;1299;22932;-75
2022/10/12 08:53:17;;;;;;;31.90;10.30;;;;;;;10.64;78.62;99858.60;85835;1302;22640;-75
2022/10/12 08:55:35;;;;;;;40.60;10.20;;;;;;;10.70;78.70;99861.36;85874;1301;23003;-75
2022/10/12 08:57:36;;;;;;;31.60;11.60;;;;;;;10.85;78.78;99863.14;85799;1303;22527;-75
2022/10/12 08:59:38;;;;;;;42.10;10.60;;;;;;;10.99;78.76;99860.55;85613;1303;99326;-75
2022/10/12 09:01:52;;;;;;;31.70;10.70;;;;;;;11.11;78.45;99861.17;85679;1305;22435;-73
2022/10/12 09:04:24;;;;;;;39.50;12.30;;;;;;;11.21;78.29;99863.80;85846;1301;24619;-74
2022/10/12 09:06:36;;;;;;;36.50;10.60;;;;;;;11.26;78.03;99865.03;85798;1301;98286;-75
2022/10/12 09:08:44;;;;;;;24.80;9.90;;;;;;;11.29;77.91;99864.92;85866;1302;24641;-76
2022/10/12 09:11:14;;;;;;;24.70;9.50;;;;;;;11.31;77.66;99867.14;85829;1303;22651;-75
2022/10/12 09:13:46;;;;;;;31.20;10.80;;;;;;;11.30;77.39;99865.06;85439;1307;22536;-76
2022/10/12 09:15:59;;;;;;;35.60;10.10;;;;;;;11.29;77.40;99865.61;85439;1307;25338;-75
2022/10/12 09:18:05;;;;;;;38.00;9.50;;;;;;;11.30;77.41;99865.06;85326;1309;98843;-75
2022/10/12 09:20:34;;;;;;;29.30;10.30;;;;;;;11.36;77.37;99866.60;85214;1318;22580;-74
2022/10/12 09:22:36;;;;;;;26.90;10.60;;;;;;;11.37;77.21;99859.70;85544;1310;22510;-74
2022/10/12 09:24:39;;;;;;;10.50;6.40;;;;;;;11.43;77.46;99854.54;85951;1307;99401;-75
2022/10/12 09:26:44;;;;;;;20.80;9.20;;;;;;;11.59;77.55;99854.66;85489;1310;22732;-76
2022/10/12 09:28:50;;;;;;;20.90;9.60;;;;;;;11.71;77.31;99858.95;84957;1308;22782;-76
2022/10/12 09:31:09;;;;;;;26.30;9.90;;;;;;;11.78;77.12;99848.11;84969;1307;100351;-77
2022/10/12 09:33:24;;;;;;;21.20;9.10;;;;;;;11.94;77.12;99858.95;85121;1313;24990;-76
2022/10/12 09:35:26;;;;;;;21.50;9.10;;;;;;;12.07;76.87;99857.56;84716;1303;99331;-74
2022/10/12 09:37:30;;;;;;;26.50;8.90;;;;;;;12.20;76.71;99854.08;84963;1310;27719;-76
2022/10/12 09:39:36;;;;;;;34.40;9.00;;;;;;;12.37;76.87;99856.16;85111;1311;24324;-75
2022/10/12 09:41:43;;;;;;;28.40;9.40;;;;;;;12.54;76.58;99854.23;84560;1309;100068;-76
2022/10/12 09:43:45;;;;;;;21.60;9.60;;;;;;;12.74;76.46;99856.05;84918;1307;25397;-77
2022/10/12 09:45:47;;;;;;;23.90;9.30;;;;;;;12.87;76.09;99849.84;84936;1315;23147;-75